createdAt,value
2017-08-28T00:01:50.913Z,66.33
2017-08-28T00:06:52.877Z,65.75
2017-08-28T00:11:55.305Z,65.75
2017-08-28T00:16:57.900Z,65.77
2017-08-28T00:21:59.911Z,65.51
2017-08-28T00:27:02.223Z,64.98
2017-08-28T00:32:05.799Z,66.58
2017-08-28T00:37:08.422Z,66.84
2017-08-28T00:42:12.269Z,65.67
2017-08-28T00:47:14.629Z,65.45
2017-08-28T00:52:17.166Z,66.58
2017-08-28T00:57:19.145Z,66.99
2017-08-28T01:02:21.611Z,66.70
2017-08-28T01:07:23.618Z,65.85
2017-08-28T01:12:25.960Z,66.52
2017-08-28T01:17:28.616Z,66.43
2017-08-28T01:22:31.288Z,66.07
2017-08-28T01:27:34.185Z,66.42
2017-08-28T01:32:36.827Z,66.63
2017-08-28T01:37:39.608Z,66.16
2017-08-28T01:42:41.614Z,66.32
2017-08-28T01:47:43.890Z,66.11
2017-08-28T01:52:46.755Z,66.33
2017-08-28T01:57:49.427Z,66.69
2017-08-28T02:02:51.900Z,65.96
2017-08-28T02:07:54.564Z,68.12
2017-08-28T02:12:57.371Z,69.03
2017-08-28T02:18:00.149Z,70.20
2017-08-28T02:23:04.030Z,71.09
2017-08-28T02:28:06.883Z,71.75
2017-08-28T02:33:08.949Z,71.42
2017-08-28T02:38:11.830Z,71.53
2017-08-28T02:43:14.030Z,70.22
2017-08-28T02:48:16.090Z,69.61
2017-08-28T02:53:18.622Z,69.16
2017-08-28T02:58:22.493Z,68.64
2017-08-28T03:03:27.112Z,68.26
2017-08-28T03:08:33.256Z,67.53
2017-08-28T03:13:37.684Z,67.47
2017-08-28T03:18:40.526Z,67.81
2017-08-28T03:23:44.895Z,67.71
2017-08-28T03:28:50.938Z,67.86
2017-08-28T03:33:54.292Z,67.80
2017-08-28T03:39:03.187Z,68.06
2017-08-28T03:44:09.755Z,68.62
2017-08-28T03:49:16.268Z,70.23
2017-08-28T03:54:23.328Z,70.64
2017-08-28T03:59:29.831Z,69.33
2017-08-28T04:04:34.056Z,68.21
2017-08-28T04:15:01.809Z,68.13
2017-08-28T04:20:06.105Z,68.35
2017-08-28T04:25:13.865Z,68.32
2017-08-28T04:30:19.252Z,68.34
2017-08-28T04:35:25.682Z,68.36
2017-08-28T04:40:32.842Z,68.43
2017-08-28T04:45:36.322Z,68.64
2017-08-28T04:50:40.234Z,68.20
2017-08-28T04:55:43.268Z,68.26
2017-08-28T05:00:46.071Z,67.56
2017-08-28T05:05:49.485Z,67.48
2017-08-28T05:10:52.424Z,67.61
2017-08-28T05:15:55.415Z,67.81
2017-08-28T05:20:58.181Z,68.04
2017-08-28T05:26:01.074Z,68.74
2017-08-28T05:31:04.040Z,69.31
2017-08-28T05:36:09.218Z,69.43
2017-08-28T05:41:12.124Z,69.52
2017-08-28T05:46:14.951Z,69.58
2017-08-28T05:51:17.747Z,69.33
2017-08-28T05:56:20.588Z,69.24
2017-08-28T06:01:23.425Z,69.39
2017-08-28T06:06:26.265Z,68.82
2017-08-28T06:11:29.091Z,68.97
2017-08-28T06:16:31.937Z,67.76
2017-08-28T06:21:34.800Z,66.90
2017-08-28T06:26:37.645Z,66.29
2017-08-28T06:31:40.515Z,66.45
2017-08-28T06:36:43.688Z,66.46
2017-08-28T06:41:46.461Z,66.63
2017-08-28T06:46:50.080Z,65.59
2017-08-28T06:51:52.114Z,64.22
2017-08-28T06:57:03.932Z,62.53
2017-08-28T07:02:11.994Z,62.13
2017-08-28T07:07:26.175Z,61.17
2017-08-28T07:12:33.081Z,60.56
2017-08-28T07:17:39.567Z,60.70
2017-08-28T07:22:44.709Z,59.75
2017-08-28T07:27:49.710Z,60.09
2017-08-28T07:38:08.435Z,59.21
2017-08-28T07:43:11.574Z,58.39
2017-08-28T07:48:13.635Z,56.61
2017-08-28T07:53:15.615Z,55.76
2017-08-28T07:58:17.569Z,57.01
2017-08-28T08:03:19.584Z,56.67
2017-08-28T08:08:21.578Z,55.60
2017-08-28T08:13:23.589Z,54.96
2017-08-28T08:18:25.675Z,53.51
2017-08-28T08:23:27.710Z,52.53
2017-08-28T08:28:29.705Z,51.52
2017-08-28T08:39:07.688Z,50.87
2017-08-28T08:44:09.885Z,50.44
2017-08-28T08:49:11.855Z,51.07
2017-08-28T08:54:13.819Z,49.28
2017-08-28T08:59:15.822Z,49.33
2017-08-28T09:04:17.772Z,48.65
2017-08-28T09:09:19.717Z,49.28
2017-08-28T09:14:21.646Z,48.18
2017-08-28T09:19:24.736Z,46.95
2017-08-28T09:24:26.662Z,45.85
2017-08-28T09:29:28.563Z,44.56
2017-08-28T09:34:30.504Z,44.89
2017-08-28T09:39:32.444Z,45.12
2017-08-28T09:44:34.420Z,44.99
2017-08-28T09:49:36.339Z,42.95
2017-08-28T09:54:38.348Z,43.64
2017-08-28T09:59:40.352Z,42.32
2017-08-28T10:04:42.296Z,40.53
2017-08-28T10:09:44.452Z,38.51
2017-08-28T10:14:46.431Z,39.13
2017-08-28T10:19:48.414Z,39.47
2017-08-28T10:24:50.550Z,40.01
2017-08-28T10:29:52.556Z,38.32
2017-08-28T10:34:54.476Z,38.79
2017-08-28T10:39:56.443Z,37.90
2017-08-28T10:44:58.522Z,38.00
2017-08-28T10:50:00.970Z,37.47
2017-08-28T10:55:03.307Z,37.54
2017-08-28T11:00:05.272Z,36.68
2017-08-28T11:05:07.295Z,35.71
2017-08-28T11:10:09.240Z,36.77
2017-08-28T11:15:11.299Z,36.15
2017-08-28T11:20:13.249Z,36.17
2017-08-28T11:25:15.203Z,35.10
2017-08-28T11:30:17.183Z,34.83
2017-08-28T11:35:21.695Z,34.94
2017-08-28T11:40:26.456Z,34.52
2017-08-28T11:45:28.422Z,35.32
2017-08-28T11:50:35.654Z,35.83
2017-08-28T11:55:37.890Z,36.58
2017-08-28T12:00:44.861Z,34.39
2017-08-28T12:05:47.325Z,33.46
2017-08-28T12:10:49.435Z,33.21
2017-08-28T12:15:51.649Z,33.05
2017-08-28T12:20:53.808Z,33.86
2017-08-28T12:26:02.026Z,33.81
2017-08-28T12:31:04.639Z,33.27
2017-08-28T12:36:06.974Z,34.18
2017-08-28T12:41:08.957Z,34.22
2017-08-28T12:46:10.939Z,34.33
2017-08-28T12:51:12.871Z,35.29
2017-08-28T12:56:14.862Z,35.47
2017-08-28T13:01:20.457Z,35.69
2017-08-28T13:06:24.156Z,35.04
2017-08-28T13:11:26.367Z,34.83
2017-08-28T13:16:29.069Z,35.05
2017-08-28T13:21:31.417Z,34.50
2017-08-28T13:26:37.485Z,33.98
2017-08-28T13:31:39.749Z,34.22
2017-08-28T13:36:41.692Z,33.85
2017-08-28T13:41:43.612Z,34.15
2017-08-28T13:46:45.579Z,35.35
2017-08-28T13:51:47.535Z,34.56
2017-08-28T13:56:49.500Z,34.51
2017-08-28T14:01:51.423Z,34.80
2017-08-28T14:06:53.467Z,34.85
2017-08-28T14:11:55.419Z,34.55
2017-08-28T14:16:57.367Z,33.56
2017-08-28T14:21:59.294Z,33.34
2017-08-28T14:27:01.276Z,33.22
2017-08-28T14:32:03.271Z,33.41
2017-08-28T14:37:05.234Z,32.53
2017-08-28T14:42:07.161Z,32.73
2017-08-28T14:47:09.406Z,33.99
2017-08-28T14:52:11.320Z,33.85
2017-08-28T14:57:13.252Z,36.33
2017-08-28T15:02:15.199Z,35.21
2017-08-28T15:07:17.233Z,35.65
2017-08-28T15:12:20.667Z,34.25
2017-08-28T15:17:22.754Z,35.38
2017-08-28T15:22:24.703Z,35.94
2017-08-28T15:27:26.967Z,35.52
2017-08-28T15:32:28.916Z,37.55
2017-08-28T15:37:30.832Z,38.26
2017-08-28T15:42:32.750Z,38.38
2017-08-28T15:47:34.686Z,38.10
2017-08-28T15:52:37.423Z,37.66
2017-08-28T15:57:39.399Z,36.78
2017-08-28T16:02:41.291Z,36.66
2017-08-28T16:07:43.255Z,36.59
2017-08-28T16:12:45.520Z,36.69
2017-08-28T16:17:47.548Z,36.40
2017-08-28T16:22:49.471Z,37.58
2017-08-28T16:27:51.458Z,37.04
2017-08-28T16:32:53.426Z,37.18
2017-08-28T16:37:55.421Z,37.56
2017-08-28T16:42:57.965Z,38.04
2017-08-28T16:48:00.008Z,38.62
2017-08-28T16:53:01.959Z,39.55
2017-08-28T16:58:03.880Z,40.14
2017-08-28T17:03:05.821Z,40.05
2017-08-28T17:08:07.746Z,40.66
2017-08-28T17:13:10.132Z,41.19
2017-08-28T17:18:12.288Z,41.91
2017-08-28T17:23:14.229Z,42.24
2017-08-28T17:33:34.165Z,42.76
2017-08-28T17:38:43.186Z,43.12
2017-08-28T17:43:49.124Z,43.74
2017-08-28T17:48:56.705Z,44.23
2017-08-28T17:54:04.081Z,44.25
2017-08-28T17:59:11.546Z,44.41
2017-08-28T18:04:14.598Z,44.85
2017-08-28T18:09:19.712Z,45.19
2017-08-28T18:14:23.367Z,45.96
2017-08-28T18:19:25.398Z,46.30
2017-08-28T18:24:27.921Z,46.53
2017-08-28T18:29:29.924Z,47.32
2017-08-28T18:34:36.513Z,47.68
2017-08-28T18:39:38.746Z,47.99
2017-08-28T18:44:42.030Z,48.56
2017-08-28T18:49:45.325Z,49.29
2017-08-28T18:54:48.487Z,49.47
2017-08-28T18:59:51.652Z,50.41
2017-08-28T19:04:55.027Z,50.44
2017-08-28T19:09:58.317Z,50.68
2017-08-28T19:15:01.662Z,50.94
2017-08-28T19:20:05.994Z,51.03
2017-08-28T19:25:10.638Z,51.73
2017-08-28T19:30:15.932Z,51.45
2017-08-28T19:35:21.794Z,51.88
2017-08-28T19:40:28.553Z,51.68
2017-08-28T19:45:31.954Z,52.00
2017-08-28T19:50:35.613Z,51.94
2017-08-28T19:55:39.623Z,52.33
2017-08-28T20:00:44.250Z,52.45
2017-08-28T20:05:49.236Z,52.93
2017-08-28T20:10:52.401Z,52.72
2017-08-28T20:15:55.558Z,52.94
2017-08-28T20:20:58.875Z,52.79
2017-08-28T20:26:02.022Z,53.20
2017-08-28T20:31:05.184Z,53.42
2017-08-28T20:36:08.400Z,54.21
2017-08-28T20:41:11.584Z,53.97
2017-08-28T20:46:14.852Z,54.13
2017-08-28T20:51:18.152Z,54.29
2017-08-28T20:56:21.407Z,53.89
2017-08-28T21:01:24.555Z,53.72
2017-08-28T21:06:27.759Z,54.28
2017-08-28T21:11:30.913Z,54.30
2017-08-28T21:16:32.899Z,53.93
2017-08-28T21:21:34.871Z,53.96
2017-08-28T21:26:37.191Z,54.00
2017-08-28T21:31:39.137Z,54.63
2017-08-28T21:36:41.501Z,54.79
2017-08-28T21:41:43.496Z,54.73
2017-08-28T21:46:45.903Z,54.61
2017-08-28T21:51:47.831Z,54.78
2017-08-28T21:56:49.776Z,54.63
2017-08-28T22:01:51.863Z,54.50
2017-08-28T22:06:53.787Z,54.84
2017-08-28T22:11:56.043Z,55.13
2017-08-28T22:16:59.412Z,54.88
2017-08-28T22:22:01.447Z,55.61
2017-08-28T22:27:03.420Z,55.53
2017-08-28T22:32:05.346Z,55.15
2017-08-28T22:37:07.314Z,55.72
2017-08-28T22:42:09.317Z,55.40
2017-08-28T22:47:11.323Z,55.23
2017-08-28T22:52:13.361Z,55.02
2017-08-28T22:57:15.987Z,55.22
2017-08-28T23:02:18.638Z,55.40
2017-08-28T23:07:21.233Z,55.28
2017-08-28T23:12:23.935Z,55.37
2017-08-28T23:17:25.893Z,55.68
2017-08-28T23:22:27.983Z,55.91
2017-08-28T23:27:29.898Z,55.68
2017-08-28T23:32:32.264Z,56.06
2017-08-28T23:37:34.505Z,56.04
2017-08-28T23:42:36.487Z,56.07
2017-08-28T23:47:38.434Z,56.55
2017-08-28T23:52:40.991Z,57.13
2017-08-28T23:57:43.199Z,57.29
